Time;durP1;ratioP1;P1;durP2;ratioP2;P2;SDS_P1;SDS_P2;PMS_P1;PMS_P2;Temp;Humidity;BMP_temperature;BMP_pressure;BME280_temperature;BME280_humidity;BME280_pressure;Samples;Min_cycle;Max_cycle;Signal;HPM_P1;HPM_P2
2022/06/01 00:00:30;;;;;;;95.10;81.87;;;13.20;99.90;;;;;;5121026;28;20451;-86
2022/06/01 00:02:57;;;;;;;80.73;51.67;;;13.10;99.90;;;;;;5102467;28;20803;-86
2022/06/01 00:05:23;;;;;;;80.40;34.07;;;13.00;99.90;;;;;;5119841;28;20604;-86
2022/06/01 00:07:49;;;;;;;87.70;59.73;;;13.10;99.90;;;;;;5119702;28;20400;-85
2022/06/01 00:10:15;;;;;;;83.83;48.47;;;13.20;99.90;;;;;;5119394;28;20392;-86
2022/06/01 00:12:41;;;;;;;73.80;29.07;;;13.10;99.90;;;;;;5119130;28;20175;-86
2022/06/01 00:15:10;;;;;;;72.57;27.17;;;13.00;99.90;;;;;;5119236;28;20398;-87
2022/06/01 00:17:35;;;;;;;77.83;39.40;;;13.00;99.90;;;;;;5119589;28;20412;-86
2022/06/01 00:20:01;;;;;;;78.17;41.23;;;12.80;99.90;;;;;;5119399;28;20909;-86
2022/06/01 00:22:27;;;;;;;81.47;48.10;;;12.70;99.90;;;;;;5101360;28;20190;-86
2022/06/01 00:24:53;;;;;;;91.37;71.00;;;12.60;99.90;;;;;;5118972;28;20473;-87
2022/06/01 00:27:19;;;;;;;93.20;73.53;;;12.50;99.90;;;;;;5119640;28;20637;-87
2022/06/01 00:29:48;;;;;;;116.03;104.80;;;12.50;99.90;;;;;;5101138;28;20163;-85
2022/06/01 00:32:14;;;;;;;109.53;98.67;;;12.40;99.90;;;;;;5188542;22;20397;-86
2022/06/01 00:34:41;;;;;;;79.47;48.40;;;12.50;99.90;;;;;;5119150;28;20413;-86
2022/06/01 00:37:10;;;;;;;85.80;56.20;;;12.40;99.90;;;;;;5118701;28;20408;-86
2022/06/01 00:39:36;;;;;;;82.67;62.27;;;12.30;99.90;;;;;;5116829;28;20479;-86
2022/06/01 00:42:18;;;;;;;82.70;52.30;;;12.30;99.90;;;;;;5118774;28;20416;-86
2022/06/01 00:44:45;;;;;;;83.27;50.73;;;12.40;99.90;;;;;;5119953;28;20497;-86
2022/06/01 00:47:11;;;;;;;80.67;53.77;;;12.30;99.90;;;;;;5117982;28;20428;-86
2022/06/01 00:49:40;;;;;;;84.20;65.17;;;12.20;99.90;;;;;;5120082;28;20403;-86
2022/06/01 00:52:06;;;;;;;73.97;31.67;;;12.30;99.90;;;;;;5120073;28;20400;-86
2022/06/01 00:54:32;;;;;;;70.50;21.47;;;12.40;99.90;;;;;;5120300;28;20399;-86
2022/06/01 00:57:06;;;;;;;73.07;31.63;;;12.40;99.90;;;;;;5119377;28;20416;-86
2022/06/01 00:59:34;;;;;;;71.90;27.10;;;12.40;99.90;;;;;;5118828;28;20496;-86
2022/06/01 01:02:02;;;;;;;71.27;28.43;;;12.40;99.90;;;;;;5120478;28;20411;-86
2022/06/01 01:04:31;;;;;;;68.10;18.97;;;12.30;99.90;;;;;;5122070;28;20415;-87
2022/06/01 01:06:59;;;;;;;67.60;15.60;;;12.40;99.90;;;;;;5120040;28;20447;-86
2022/06/01 01:09:25;;;;;;;70.07;18.87;;;12.30;99.90;;;;;;5121029;28;20438;-86
2022/06/01 01:12:01;;;;;;;67.47;16.67;;;12.30;99.90;;;;;;5120275;28;20806;-86
2022/06/01 01:14:31;;;;;;;72.83;31.73;;;12.20;99.90;;;;;;5120384;28;20227;-87
2022/06/01 01:16:59;;;;;;;74.87;36.03;;;12.00;99.90;;;;;;5119932;28;20446;-86
2022/06/01 01:19:39;;;;;;;73.60;35.17;;;11.90;99.90;;;;;;5120724;28;20424;-86
2022/06/01 01:22:20;;;;;;;74.30;37.07;;;11.80;99.90;;;;;;5120901;28;20735;-86
2022/06/01 01:25:16;;;;;;;93.10;78.90;;;11.70;99.90;;;;;;5125135;28;20400;-86
2022/06/01 01:27:43;;;;;;;91.67;73.80;;;11.50;99.90;;;;;;5124760;28;20915;-85
2022/06/01 01:30:34;;;;;;;93.70;80.60;;;11.50;99.90;;;;;;5122723;28;20469;-85
2022/06/01 01:33:07;;;;;;;90.50;77.03;;;11.40;99.90;;;;;;5124565;28;20428;-86
2022/06/01 01:35:33;;;;;;;101.00;90.33;;;11.40;99.90;;;;;;5126604;27;20460;-86
2022/06/01 01:38:06;;;;;;;144.50;132.30;;;11.30;99.90;;;;;;5127107;27;20901;-87
2022/06/01 01:40:32;;;;;;;146.80;134.53;;;11.30;99.90;;;;;;5126474;27;20492;-87
2022/06/01 01:42:59;;;;;;;85.63;67.67;;;11.20;99.90;;;;;;5144778;27;20442;-86
2022/06/01 01:45:29;;;;;;;143.50;131.43;;;11.20;99.90;;;;;;5144475;27;20403;-86
2022/06/01 01:47:54;;;;;;;135.30;123.37;;;11.10;99.90;;;;;;5145097;27;20406;-86
2022/06/01 01:50:22;;;;;;;137.23;125.30;;;11.10;99.90;;;;;;5125642;27;20403;-87
2022/06/01 01:52:48;;;;;;;157.83;145.60;;;11.10;99.90;;;;;;5144196;27;20415;-86
2022/06/01 01:55:20;;;;;;;117.73;106.73;;;11.00;99.90;;;;;;5125609;27;20415;-86
2022/06/01 01:58:21;;;;;;;88.13;75.68;;;11.00;99.90;;;;;;5126717;27;20838;-86
2022/06/01 02:00:51;;;;;;;114.28;103.05;;;11.00;99.90;;;;;;5125243;27;20194;-86
2022/06/01 02:03:29;;;;;;;86.30;71.27;;;11.00;99.90;;;;;;5124434;27;20194;-86
2022/06/01 02:06:14;;;;;;;89.93;78.97;;;10.90;99.90;;;;;;5143258;27;20423;-86
2022/06/01 02:08:48;;;;;;;116.05;105.18;;;10.80;99.90;;;;;;5144341;27;20154;-86
2022/06/01 02:14:34;;;;;;;147.90;135.77;;;10.70;99.90;;;;;;5144517;27;20162;-85
2022/06/01 02:17:09;;;;;;;186.90;173.38;;;10.60;99.90;;;;;;5145462;27;20652;-86
2022/06/01 02:20:10;;;;;;;174.82;161.65;;;10.50;99.90;;;;;;5125137;27;20169;-86
2022/06/01 02:22:38;;;;;;;147.77;135.90;;;10.40;99.90;;;;;;5125032;27;20189;-86
2022/06/01 02:25:05;;;;;;;186.98;173.48;;;10.40;99.90;;;;;;5143022;27;20269;-85
2022/06/01 02:27:41;;;;;;;187.38;173.82;;;10.40;99.90;;;;;;5125835;27;20709;-88
2022/06/01 02:30:19;;;;;;;159.02;146.80;;;10.40;99.90;;;;;;5144845;27;20183;-85
2022/06/01 02:32:46;;;;;;;188.50;174.98;;;10.40;99.90;;;;;;5144625;27;20177;-86
2022/06/01 02:35:14;;;;;;;160.52;148.32;;;10.30;99.90;;;;;;5129685;27;20166;-89
2022/06/01 02:37:44;;;;;;;175.77;162.63;;;10.20;99.90;;;;;;5129713;27;20185;-88
2022/06/01 02:40:14;;;;;;;182.73;169.52;;;10.20;99.90;;;;;;5144798;27;20218;-88
2022/06/01 02:42:49;;;;;;;168.65;156.07;;;10.20;99.90;;;;;;5144340;27;20264;-88
2022/06/01 02:45:15;;;;;;;147.40;135.60;;;10.20;99.90;;;;;;5144483;27;20198;-88
2022/06/01 02:47:44;;;;;;;182.10;168.60;;;10.20;99.90;;;;;;5142965;27;20177;-88
2022/06/01 02:50:21;;;;;;;159.05;146.27;;;10.20;99.90;;;;;;5142467;27;20403;-87
2022/06/01 02:52:47;;;;;;;146.60;134.45;;;10.20;99.90;;;;;;5144100;27;20220;-87
2022/06/01 02:55:15;;;;;;;163.02;150.48;;;10.20;99.90;;;;;;5124063;27;20261;-88
2022/06/01 02:57:42;;;;;;;148.23;136.40;;;10.10;99.90;;;;;;5124408;27;20190;-88
2022/06/01 03:00:18;;;;;;;159.48;147.10;;;10.10;99.90;;;;;;5124228;27;20168;-88
2022/06/01 03:02:51;;;;;;;154.13;142.18;;;10.00;99.90;;;;;;5125122;27;20193;-88
2022/06/01 03:05:18;;;;;;;172.88;159.57;;;9.90;99.90;;;;;;5123376;27;20529;-87
2022/06/01 03:07:44;;;;;;;174.25;161.23;;;10.00;99.90;;;;;;5141792;27;20182;-88
2022/06/01 03:10:10;;;;;;;152.03;139.83;;;10.00;99.90;;;;;;5123780;27;20162;-88
2022/06/01 03:12:39;;;;;;;148.60;136.82;;;10.00;99.90;;;;;;5142531;27;20177;-88
2022/06/01 03:15:08;;;;;;;158.20;145.70;;;10.00;99.90;;;;;;5142481;27;20196;-88
2022/06/01 03:17:34;;;;;;;171.68;158.88;;;9.90;99.90;;;;;;5142451;27;20177;-88
2022/06/01 03:26:37;;;;;;;174.20;161.07;;;10.00;99.90;;;;;;5121245;27;20185;-89
2022/06/01 03:30:16;;;;;;;;;;;;;;;;;;;;;
2022/06/01 03:33:50;;;;;;;159.18;146.50;;;10.10;99.90;;;;;;5008098;28;20179;-89
2022/06/01 03:37:07;;;;;;;;;;;;;;;;;;;;;
2022/06/01 03:40:26;;;;;;;;;;;;;;;;;;;;;
2022/06/01 03:59:40;;;;;;;;;;;;;;;;;;;;;
2022/06/01 04:02:52;;;;;;;166.65;153.20;;;10.70;99.90;;;;;;5135961;27;20600;-89
2022/06/01 04:05:41;;;;;;;142.60;130.40;;;10.60;99.90;;;;;;5015705;28;20583;-89
2022/06/01 04:15:16;;;;;;;74.93;33.67;;;11.00;99.90;;;;;;5032008;28;20177;-89
2022/06/01 04:18:14;;;;;;;70.63;24.67;;;11.00;99.90;;;;;;5031929;28;20188;-89
2022/06/01 04:24:35;;;;;;;73.63;30.05;;;10.90;99.90;;;;;;5001003;28;20684;-89
2022/06/01 04:31:14;;;;;;;79.75;47.13;;;11.00;99.90;;;;;;4991529;28;20251;-88
2022/06/01 04:34:49;;;;;;;83.28;58.25;;;11.00;99.90;;;;;;4936864;29;20238;-89
2022/06/01 04:41:59;;;;;;;78.55;44.88;;;11.50;99.90;;;;;;4908510;29;20185;-89
2022/06/01 04:45:05;;;;;;;67.97;13.85;;;12.10;99.90;;;;;;4880388;29;20305;-89
2022/06/01 04:47:40;;;;;;;67.07;11.10;;;12.70;99.90;;;;;;4945371;28;20281;-89
2022/06/01 04:50:30;;;;;;;66.33;9.37;;;12.90;99.90;;;;;;5010868;28;20444;-89
2022/06/01 04:53:04;;;;;;;66.88;10.30;;;13.10;99.90;;;;;;5038689;28;20442;-89
2022/06/01 04:58:18;;;;;;;67.00;6.43;;;13.40;99.90;;;;;;5111449;25;20822;-89
2022/06/01 05:01:03;;;;;;;69.57;5.00;;;13.50;99.90;;;;;;5095618;28;20392;-90
2022/06/01 05:04:40;;;;;;;69.13;6.20;;;13.40;99.90;;;;;;5095785;28;20447;-89
2022/06/01 05:07:35;;;;;;;64.70;5.60;;;13.40;99.90;;;;;;5066102;28;20588;-89
2022/06/01 05:10:28;;;;;;;65.07;6.07;;;13.50;99.90;;;;;;5064506;28;20456;-90
2022/06/01 05:13:15;;;;;;;;;;;;;;;;;;;;;
2022/06/01 05:16:06;;;;;;;66.53;6.10;;;13.30;99.90;;;;;;5093202;28;20425;-90
2022/06/01 05:19:02;;;;;;;65.50;7.60;;;13.30;99.90;;;;;;5082527;28;20456;-89
2022/06/01 05:21:46;;;;;;;67.40;7.53;;;13.10;99.90;;;;;;5075674;28;20488;-89
2022/06/01 05:24:15;;;;;;;67.33;7.13;;;13.20;99.90;;;;;;5092053;28;20443;-89
2022/06/01 05:26:52;;;;;;;67.40;7.70;;;13.10;99.90;;;;;;5091895;28;20429;-89
2022/06/01 05:29:37;;;;;;;;;;;;;;;;;;;;;
2022/06/01 05:32:09;;;;;;;67.87;8.10;;;13.00;99.90;;;;;;5093061;28;20397;-88
2022/06/01 05:35:54;;;;;;;66.83;7.83;;;13.00;99.90;;;;;;5093522;28;20409;-90
2022/06/01 05:38:03;;;;;;;66.30;7.97;;;13.00;99.90;;;;;;5082111;28;20912;-88
2022/06/01 05:40:32;;;;;;;65.53;7.60;;;12.80;99.90;;;;;;5093081;28;20402;-88
2022/06/01 05:42:58;;;;;;;69.37;8.17;;;12.90;99.90;;;;;;5091837;28;20437;-89
2022/06/01 05:45:28;;;;;;;65.57;8.53;;;12.90;99.90;;;;;;5075167;28;20954;-88
2022/06/01 05:48:11;;;;;;;69.17;9.93;;;12.80;99.90;;;;;;5074892;28;20471;-89
2022/06/01 05:50:37;;;;;;;65.83;9.70;;;12.70;99.90;;;;;;5075628;28;20401;-88
2022/06/01 05:53:09;;;;;;;67.07;10.67;;;12.70;99.90;;;;;;5092129;28;20444;-89
2022/06/01 05:55:46;;;;;;;65.90;10.00;;;12.70;99.90;;;;;;5093129;28;20476;-89
2022/06/01 05:58:30;;;;;;;66.80;11.63;;;12.70;99.90;;;;;;5092873;28;20420;-89
2022/06/01 06:01:12;;;;;;;66.27;11.40;;;12.70;99.90;;;;;;5075007;28;20256;-89
2022/06/01 06:03:49;;;;;;;66.80;11.33;;;12.70;99.90;;;;;;5074857;28;20808;-89
2022/06/01 06:06:31;;;;;;;67.00;11.50;;;12.70;99.90;;;;;;5075240;28;20931;-89
2022/06/01 06:12:41;;;;;;;68.27;13.13;;;12.70;99.90;;;;;;5093994;28;20162;-89
2022/06/01 06:15:13;;;;;;;67.05;13.38;;;12.70;99.90;;;;;;5097087;28;20488;-88
2022/06/01 06:17:39;;;;;;;69.60;12.80;;;12.90;99.90;;;;;;5078077;28;20214;-88
2022/06/01 06:20:25;;;;;;;68.57;12.93;;;12.90;99.90;;;;;;5096907;28;20724;-88
2022/06/01 06:23:06;;;;;;;67.17;12.07;;;13.00;99.90;;;;;;5096514;28;20253;-88
2022/06/01 06:25:35;;;;;;;76.53;12.10;;;13.10;99.90;;;;;;5079092;28;20928;-87
2022/06/01 06:28:05;;;;;;;66.30;9.90;;;13.10;99.90;;;;;;5096925;28;20401;-88
2022/06/01 06:30:31;;;;;;;67.07;10.50;;;13.20;99.90;;;;;;5096307;28;20405;-88
2022/06/01 06:32:59;;;;;;;67.07;9.30;;;13.20;99.90;;;;;;5095039;28;20938;-88
2022/06/01 06:35:25;;;;;;;65.30;7.10;;;13.20;99.90;;;;;;5096109;28;20492;-88
2022/06/01 06:38:00;;;;;;;64.40;6.03;;;13.30;99.90;;;;;;5096527;28;20437;-90
2022/06/01 06:40:26;;;;;;;65.70;5.87;;;13.40;99.90;;;;;;5095725;28;20416;-87
2022/06/01 06:43:06;;;;;;;63.90;5.20;;;13.50;99.90;;;;;;5077848;28;20445;-88
2022/06/01 06:45:31;;;;;;;65.27;5.67;;;13.50;99.90;;;;;;5095999;28;20881;-88
2022/06/01 06:47:57;;;;;;;64.27;5.97;;;13.60;99.90;;;;;;5096307;28;20398;-87
2022/06/01 06:50:23;;;;;;;66.40;7.80;;;13.80;99.90;;;;;;5078043;28;20206;-87
2022/06/01 06:52:52;;;;;;;65.77;5.80;;;14.00;99.90;;;;;;5094522;28;20173;-87
2022/06/01 06:55:24;;;;;;;64.50;6.73;;;14.20;99.90;;;;;;5095462;28;20809;-88
2022/06/01 06:57:53;;;;;;;65.30;6.60;;;14.30;99.90;;;;;;5095553;28;20455;-87
2022/06/01 07:00:21;;;;;;;65.57;6.30;;;14.50;99.90;;;;;;5077708;28;20417;-87
2022/06/01 07:02:55;;;;;;;65.50;8.13;;;14.60;99.90;;;;;;5094212;28;20449;-88
2022/06/01 07:08:08;;;;;;;65.13;5.90;;;15.00;97.50;;;;;;5096113;28;20781;-87
2022/06/01 07:10:43;;;;;;;65.07;6.70;;;15.20;91.80;;;;;;5077382;28;20399;-87
2022/06/01 07:13:09;;;;;;;65.20;5.20;;;15.30;96.10;;;;;;5095881;28;20398;-87
2022/06/01 07:15:35;;;;;;;64.37;4.40;;;15.40;91.50;;;;;;5095805;28;20452;-88
2022/06/01 07:18:09;;;;;;;67.83;4.83;;;15.50;77.20;;;;;;5095567;28;20405;-87
2022/06/01 07:20:41;;;;;;;64.97;4.33;;;15.50;73.30;;;;;;5076405;28;20436;-87
2022/06/01 07:23:19;;;;;;;65.27;4.30;;;15.50;71.60;;;;;;5093356;28;20469;-87
2022/06/01 07:25:48;;;;;;;65.07;4.80;;;15.60;75.70;;;;;;5094276;28;20458;-87
2022/06/01 07:28:14;;;;;;;66.43;4.03;;;15.70;61.50;;;;;;5077104;28;20766;-87
2022/06/01 07:30:39;;;;;;;68.30;5.67;;;15.70;62.20;;;;;;5095816;28;20510;-87
2022/06/01 07:33:05;;;;;;;70.60;4.83;;;15.60;72.40;;;;;;5097473;28;20898;-86
2022/06/01 07:35:34;;;;;;;68.80;5.67;;;15.60;66.50;;;;;;5096444;28;20162;-87
2022/06/01 07:43:31;;;;;;;64.37;4.87;;;15.60;80.40;;;;;;5095026;28;20473;-87
2022/06/01 07:45:56;;;;;;;65.07;5.00;;;15.60;74.40;;;;;;5095629;28;20427;-87
2022/06/01 07:48:23;;;;;;;65.00;5.10;;;15.60;73.40;;;;;;5095287;28;20165;-87
2022/06/01 07:50:50;;;;;;;65.40;5.70;;;15.60;74.50;;;;;;5076690;28;20394;-87
2022/06/01 07:53:19;;;;;;;74.17;5.47;;;15.60;71.70;;;;;;5094713;28;20907;-87
2022/06/01 07:56:01;;;;;;;69.33;6.30;;;15.60;84.40;;;;;;5094479;28;20930;-88
2022/06/01 07:58:29;;;;;;;79.80;5.50;;;15.60;87.50;;;;;;5076481;28;20992;-87
2022/06/01 08:01:11;;;;;;;72.40;5.37;;;15.70;87.70;;;;;;5077083;28;20438;-87
2022/06/01 08:03:47;;;;;;;;;;;;;;;;;;;;;
2022/06/01 08:06:26;;;;;;;65.60;5.33;;;15.90;78.40;;;;;;5094574;28;20448;-88
2022/06/01 08:08:52;;;;;;;65.67;4.20;;;15.90;76.30;;;;;;5094640;28;20399;-87
2022/06/01 08:11:20;;;;;;;67.40;4.70;;;15.80;68.20;;;;;;5093200;28;20415;-87
2022/06/01 08:14:08;;;;;;;66.00;4.63;;;15.70;68.10;;;;;;5076408;28;20448;-87
2022/06/01 08:16:44;;;;;;;66.17;4.97;;;15.60;68.30;;;;;;5094886;28;20932;-87
2022/06/01 08:19:23;;;;;;;70.17;6.20;;;15.40;77.10;;;;;;5094595;28;20939;-87
2022/06/01 08:22:09;;;;;;;68.27;4.90;;;15.40;75.10;;;;;;5094367;28;20478;-87
2022/06/01 08:24:40;;;;;;;65.60;4.40;;;15.40;72.80;;;;;;5093513;28;20452;-87
2022/06/01 08:27:08;;;;;;;67.00;4.93;;;15.40;73.50;;;;;;5094193;28;20415;-87
2022/06/01 08:29:36;;;;;;;65.27;4.60;;;15.40;63.80;;;;;;5093968;28;20403;-87
2022/06/01 08:32:04;;;;;;;66.90;4.80;;;15.40;67.00;;;;;;5094569;28;20409;-87
2022/06/01 08:34:39;;;;;;;68.50;5.37;;;15.40;69.50;;;;;;5094150;28;20437;-87
2022/06/01 08:37:09;;;;;;;65.63;5.47;;;15.50;75.20;;;;;;5094425;28;20406;-87
2022/06/01 08:39:35;;;;;;;72.20;6.83;;;15.60;76.10;;;;;;5094217;28;20489;-87
2022/06/01 08:42:06;;;;;;;67.50;6.40;;;15.60;70.50;;;;;;5094058;28;20498;-87
2022/06/01 08:44:56;;;;;;;68.20;5.13;;;15.70;76.00;;;;;;5094438;28;21050;-88
2022/06/01 08:47:47;;;;;;;66.67;5.00;;;15.70;59.00;;;;;;5076426;28;20436;-88
2022/06/01 08:50:38;;;;;;;66.80;5.00;;;15.70;58.00;;;;;;5075627;28;20412;-87
2022/06/01 08:53:10;;;;;;;65.83;4.27;;;15.80;64.20;;;;;;5092510;28;20410;-88
2022/06/01 08:55:57;;;;;;;66.77;4.97;;;15.90;56.30;;;;;;5075499;28;20560;-88
2022/06/01 08:59:01;;;;;;;65.97;4.70;;;16.10;54.50;;;;;;5093547;28;20415;-88
2022/06/01 09:01:41;;;;;;;66.90;3.90;;;16.10;57.60;;;;;;5066215;28;20412;-87
2022/06/01 09:04:22;;;;;;;65.10;3.30;;;16.40;55.60;;;;;;5093474;28;20938;-87
2022/06/01 09:07:19;;;;;;;67.63;3.90;;;16.50;37.20;;;;;;5093818;28;20420;-89
2022/06/01 09:10:22;;;;;;;67.83;3.20;;;16.60;44.70;;;;;;5093782;28;20405;-88
2022/06/01 09:12:56;;;;;;;69.60;3.23;;;16.60;36.70;;;;;;5075532;28;20401;-88
2022/06/01 09:15:38;;;;;;;66.97;4.63;;;16.60;41.40;;;;;;5084342;22;20450;-88
2022/06/01 09:18:10;;;;;;;66.53;4.73;;;16.70;64.00;;;;;;5070216;28;20441;-90
2022/06/01 09:23:20;;;;;;;67.40;3.40;;;17.00;44.40;;;;;;5117181;28;20463;-87
2022/06/01 09:25:52;;;;;;;64.50;2.70;;;17.20;38.60;;;;;;5116725;28;20416;-86
2022/06/01 09:28:21;;;;;;;66.70;3.10;;;17.40;34.40;;;;;;5117665;28;20400;-86
2022/06/01 09:30:55;;;;;;;65.17;3.90;;;17.50;37.10;;;;;;5118037;28;20397;-87
2022/06/01 09:33:31;;;;;;;65.20;3.30;;;17.60;11.00;;;;;;5116861;28;20484;-87
2022/06/01 09:36:08;;;;;;;65.07;3.60;;;17.60;2.20;;;;;;5116664;28;20428;-87
2022/06/01 09:39:03;;;;;;;65.30;3.73;;;17.50;1.00;;;;;;5116601;28;20821;-87
2022/06/01 09:41:36;;;;;;;70.60;3.80;;;17.60;3.70;;;;;;5118597;28;20384;-85
2022/06/01 09:44:04;;;;;;;67.07;4.63;;;17.90;11.60;;;;;;5120937;28;21003;-86
2022/06/01 09:46:50;;;;;;;67.63;4.10;;;18.20;15.10;;;;;;5120598;28;20416;-87
2022/06/01 09:49:24;;;;;;;65.70;3.90;;;18.40;12.20;;;;;;5121701;28;20468;-87
2022/06/01 09:51:56;;;;;;;67.80;4.20;;;18.60;1.00;;;;;;5120819;28;20424;-86
2022/06/01 09:54:22;;;;;;;64.93;3.73;;;18.70;1.00;;;;;;5122426;28;20380;-87
2022/06/01 09:56:49;;;;;;;65.57;3.90;;;18.70;1.00;;;;;;5120691;28;20424;-87
2022/06/01 10:08:13;;;;;;;68.90;8.27;;;19.30;1.00;;;;;;5121255;28;20427;-87
2022/06/01 10:10:40;;;;;;;66.97;6.53;;;19.50;1.00;;;;;;5119784;28;20608;-87
2022/06/01 10:13:06;;;;;;;66.47;5.30;;;19.70;1.00;;;;;;5121115;28;20388;-86
2022/06/01 10:15:44;;;;;;;66.60;5.77;;;19.70;1.00;;;;;;5121664;28;20399;-87
2022/06/01 10:18:21;;;;;;;68.70;10.90;;;19.50;1.00;;;;;;5120934;28;20383;-86
2022/06/01 10:21:06;;;;;;;66.50;4.70;;;19.30;1.00;;;;;;5119812;28;20435;-87
2022/06/01 10:23:47;;;;;;;75.00;18.13;;;19.20;1.00;;;;;;5121747;28;20472;-86
2022/06/01 10:26:15;;;;;;;66.30;6.43;;;19.20;1.00;;;;;;5124244;28;20432;-87
2022/06/01 10:28:46;;;;;;;64.93;3.27;;;19.30;1.00;;;;;;5123474;28;20407;-88
2022/06/01 10:31:38;;;;;;;68.10;6.20;;;19.30;1.00;;;;;;5121435;28;20760;-87
2022/06/01 10:34:27;;;;;;;67.00;4.40;;;19.40;1.00;;;;;;5121015;28;20976;-87
2022/06/01 10:37:06;;;;;;;65.80;3.23;;;19.30;1.00;;;;;;5120303;28;20440;-87
2022/06/01 10:39:35;;;;;;;66.77;7.67;;;19.20;1.00;;;;;;5122190;28;20385;-87
2022/06/01 10:42:17;;;;;;;66.10;5.97;;;19.40;1.00;;;;;;5122448;28;20438;-86
2022/06/01 10:45:13;;;;;;;68.50;9.83;;;19.70;1.00;;;;;;5122024;28;20437;-87
2022/06/01 10:48:03;;;;;;;66.60;3.40;;;20.10;1.00;;;;;;5119095;28;20433;-88
2022/06/01 10:50:50;;;;;;;65.67;2.90;;;20.60;1.00;;;;;;5121966;28;20462;-86
2022/06/01 10:53:27;;;;;;;67.50;2.83;;;21.00;1.00;;;;;;5119398;28;20420;-87
2022/06/01 10:55:54;;;;;;;66.97;3.00;;;21.60;1.00;;;;;;5119427;28;20491;-86
2022/06/01 10:58:23;;;;;;;65.90;3.70;;;21.60;1.00;;;;;;5120689;28;20401;-87
2022/06/01 11:01:03;;;;;;;68.83;4.40;;;21.50;1.00;;;;;;5119016;28;20427;-87
2022/06/01 11:03:48;;;;;;;66.50;3.67;;;21.10;1.00;;;;;;5117984;28;20452;-87
2022/06/01 11:06:23;;;;;;;66.17;3.83;;;20.90;1.00;;;;;;5119718;28;20420;-86
2022/06/01 11:09:17;;;;;;;66.43;4.70;;;21.20;1.00;;;;;;5119434;28;20479;-86
2022/06/01 11:12:26;;;;;;;69.80;3.83;;;21.20;1.00;;;;;;5117064;28;20434;-87
2022/06/01 11:15:24;;;;;;;66.27;4.10;;;20.80;1.00;;;;;;5036086;28;20508;-86
2022/06/01 11:18:02;;;;;;;67.33;4.43;;;20.80;1.00;;;;;;5139906;27;20886;-87
2022/06/01 11:20:31;;;;;;;67.67;3.70;;;20.40;1.00;;;;;;5139444;27;20881;-86
2022/06/01 11:23:05;;;;;;;66.33;4.30;;;20.20;1.00;;;;;;5140169;27;20435;-87
2022/06/01 11:25:47;;;;;;;67.00;4.40;;;20.30;1.00;;;;;;5138935;27;20486;-86
2022/06/01 11:28:34;;;;;;;68.50;3.70;;;20.80;1.00;;;;;;5121363;27;20444;-87
2022/06/01 11:31:21;;;;;;;67.53;4.30;;;21.10;1.00;;;;;;5121101;27;20408;-87
2022/06/01 11:34:10;;;;;;;69.67;3.90;;;21.10;1.00;;;;;;5121292;27;20846;-86
2022/06/01 11:36:54;;;;;;;66.67;4.60;;;21.10;1.00;;;;;;5139541;27;20455;-86
2022/06/01 11:39:51;;;;;;;68.73;4.60;;;21.50;1.00;;;;;;5121439;27;20879;-87
2022/06/01 11:42:29;;;;;;;73.60;4.73;;;21.80;1.00;;;;;;5139531;27;20393;-88
2022/06/01 11:45:02;;;;;;;65.60;3.70;;;22.00;1.00;;;;;;5140335;27;20387;-87
2022/06/01 11:47:34;;;;;;;65.73;3.60;;;21.90;1.00;;;;;;5139063;27;20411;-88
2022/06/01 11:50:17;;;;;;;66.87;3.70;;;21.60;1.00;;;;;;5139904;27;20939;-86
2022/06/01 11:52:52;;;;;;;66.87;3.60;;;21.30;1.00;;;;;;5119422;27;20454;-87
2022/06/01 11:55:22;;;;;;;66.30;3.87;;;21.50;1.00;;;;;;5119954;27;20506;-87
2022/06/01 11:58:10;;;;;;;65.77;3.60;;;22.00;1.00;;;;;;5139882;27;20476;-87
2022/06/01 12:00:51;;;;;;;66.50;4.07;;;22.40;1.00;;;;;;5144776;27;20458;-87
2022/06/01 12:03:20;;;;;;;68.00;3.93;;;22.60;1.00;;;;;;5122189;27;20451;-87
2022/06/01 12:06:07;;;;;;;66.70;4.53;;;22.50;1.00;;;;;;5139592;27;20820;-87
2022/06/01 12:08:41;;;;;;;70.90;5.07;;;22.30;1.00;;;;;;5139999;27;20407;-87
2022/06/01 12:11:31;;;;;;;66.87;7.27;;;22.00;1.00;;;;;;5121196;27;20394;-86
2022/06/01 12:13:57;;;;;;;65.90;4.70;;;21.90;1.00;;;;;;5104520;27;20427;-87
2022/06/01 12:16:29;;;;;;;66.10;4.63;;;22.10;1.00;;;;;;5140948;27;20414;-86
2022/06/01 12:19:30;;;;;;;66.00;2.90;;;22.30;1.00;;;;;;5141138;27;20169;-87
2022/06/01 12:28:30;;;;;;;65.97;2.60;;;22.50;1.00;;;;;;5140274;27;20507;-86
2022/06/01 12:30:22;;;;;;;64.50;2.30;;;22.60;1.00;;;;;;5140311;27;20401;-86
2022/06/01 12:32:59;;;;;;;66.30;2.40;;;22.60;1.00;;;;;;5140068;27;20376;-87
2022/06/01 12:35:29;;;;;;;65.47;2.40;;;22.50;1.00;;;;;;5121225;27;20926;-86
2022/06/01 12:38:00;;;;;;;65.70;2.30;;;22.60;1.00;;;;;;5121845;27;20406;-87
2022/06/01 12:40:28;;;;;;;65.37;2.63;;;22.40;1.00;;;;;;5139583;27;20948;-86
2022/06/01 12:43:00;;;;;;;66.47;6.17;;;22.60;1.00;;;;;;5139629;27;20439;-86
2022/06/01 12:45:42;;;;;;;65.47;2.57;;;22.70;1.00;;;;;;5139441;27;20426;-87
2022/06/01 12:48:15;;;;;;;66.83;3.27;;;23.00;1.00;;;;;;5140291;27;20380;-86
2022/06/01 12:51:02;;;;;;;67.70;4.70;;;22.70;1.00;;;;;;5140340;27;20388;-85
2022/06/01 12:53:42;;;;;;;65.60;2.37;;;22.70;1.00;;;;;;5121855;27;20820;-85
2022/06/01 12:56:26;;;;;;;66.13;2.43;;;22.60;1.00;;;;;;5122136;27;20435;-85
2022/06/01 12:58:55;;;;;;;65.60;2.57;;;22.70;1.00;;;;;;5105947;27;20410;-86
2022/06/01 13:01:32;;;;;;;65.60;2.50;;;22.80;1.00;;;;;;5121877;27;20419;-86
2022/06/01 13:03:59;;;;;;;66.53;2.20;;;22.70;1.00;;;;;;5143073;27;20814;-85
2022/06/01 13:06:26;;;;;;;65.97;2.50;;;22.10;1.00;;;;;;5123646;27;20572;-86
2022/06/01 13:09:09;;;;;;;65.77;2.53;;;21.60;1.00;;;;;;5141698;27;20937;-86
2022/06/01 13:11:35;;;;;;;73.43;3.10;;;21.50;1.00;;;;;;5143193;27;20380;-86
2022/06/01 13:14:05;;;;;;;65.57;2.30;;;21.40;1.00;;;;;;5124315;27;20476;-86
2022/06/01 13:16:43;;;;;;;67.10;2.27;;;21.30;1.00;;;;;;5143069;27;20516;-85
2022/06/01 13:19:30;;;;;;;65.90;2.60;;;21.30;1.00;;;;;;5141981;28;20395;-85
2022/06/01 13:22:00;;;;;;;66.50;3.87;;;21.00;1.00;;;;;;5143147;28;20428;-85
2022/06/01 13:24:29;;;;;;;65.77;2.67;;;20.80;1.00;;;;;;5124956;28;20493;-85
2022/06/01 13:26:57;;;;;;;66.10;3.70;;;20.70;1.00;;;;;;5143384;28;20412;-84
2022/06/01 13:29:44;;;;;;;67.97;3.53;;;20.90;1.00;;;;;;5143429;28;20380;-85
2022/06/01 13:32:11;;;;;;;67.03;3.23;;;21.00;1.00;;;;;;5143236;28;20387;-85
2022/06/01 13:34:43;;;;;;;67.13;5.87;;;21.00;1.00;;;;;;5124382;28;20411;-85
2022/06/01 13:37:17;;;;;;;66.30;4.40;;;21.00;1.00;;;;;;5126466;28;20431;-86
2022/06/01 13:40:00;;;;;;;68.03;4.93;;;20.90;1.00;;;;;;5142994;28;20742;-85
2022/06/01 13:42:37;;;;;;;65.93;4.40;;;20.80;1.00;;;;;;5141560;28;20424;-85
2022/06/01 13:45:03;;;;;;;65.57;4.20;;;20.70;1.00;;;;;;5142542;28;20391;-86
2022/06/01 13:47:54;;;;;;;65.37;4.80;;;20.70;1.00;;;;;;5122565;28;20418;-86
2022/06/01 13:50:27;;;;;;;68.90;6.23;;;20.40;1.00;;;;;;5141965;28;20160;-86
2022/06/01 13:52:52;;;;;;;67.40;6.33;;;20.30;1.00;;;;;;5140463;28;20400;-86
2022/06/01 13:55:22;;;;;;;66.10;4.83;;;20.20;1.00;;;;;;5123858;28;20410;-84
2022/06/01 13:57:56;;;;;;;66.60;5.10;;;20.00;1.00;;;;;;5142743;28;20206;-86
2022/06/01 14:00:36;;;;;;;68.17;5.00;;;20.00;1.00;;;;;;5143332;28;20434;-86
2022/06/01 14:03:25;;;;;;;66.07;4.03;;;19.90;1.00;;;;;;5143825;28;20432;-86
2022/06/01 14:06:12;;;;;;;66.53;4.10;;;20.20;1.00;;;;;;5125799;28;20420;-86
2022/06/01 14:09:16;;;;;;;68.57;5.03;;;20.50;1.00;;;;;;5141935;28;20397;-86
2022/06/01 14:11:42;;;;;;;68.80;5.90;;;20.90;1.00;;;;;;5038719;28;20407;-86
2022/06/01 14:14:26;;;;;;;66.90;3.80;;;20.90;1.00;;;;;;5022044;28;20466;-86
2022/06/01 14:16:54;;;;;;;66.10;5.47;;;21.00;1.00;;;;;;5100413;28;20431;-86
2022/06/01 14:19:20;;;;;;;65.83;4.40;;;20.90;1.00;;;;;;5141827;28;20492;-86
2022/06/01 14:21:48;;;;;;;65.47;3.83;;;20.70;1.00;;;;;;5124037;28;20434;-85
2022/06/01 14:24:14;;;;;;;66.37;4.50;;;20.30;1.00;;;;;;5124313;28;20201;-86
2022/06/01 14:29:24;;;;;;;67.07;6.70;;;19.10;1.00;;;;;;5143677;27;20375;-86
2022/06/01 14:31:50;;;;;;;68.13;8.10;;;18.60;1.00;;;;;;5146862;27;20391;-85
2022/06/01 14:34:18;;;;;;;68.40;5.57;;;18.30;1.00;;;;;;5145585;27;20169;-85
2022/06/01 14:36:44;;;;;;;67.30;4.90;;;18.30;1.00;;;;;;5147232;27;20185;-86
2022/06/01 14:39:10;;;;;;;66.77;5.73;;;18.60;1.00;;;;;;5146172;27;20829;-86
2022/06/01 14:41:41;;;;;;;67.53;5.20;;;18.60;1.00;;;;;;5145727;27;20407;-86
2022/06/01 14:44:12;;;;;;;69.80;4.70;;;18.60;1.00;;;;;;5126886;27;20446;-87
2022/06/01 14:46:38;;;;;;;66.60;4.93;;;18.60;1.00;;;;;;5146117;27;20449;-86
2022/06/01 14:49:04;;;;;;;68.37;8.43;;;18.50;1.00;;;;;;5146210;27;20412;-87